createdAt,value
2023-03-29T00:02:30.095Z,3.55
2023-03-29T00:05:35.043Z,5.25
2023-03-29T00:08:37.954Z,2.67
2023-03-29T00:11:39.514Z,2.97
2023-03-29T00:14:41.062Z,4.00
2023-03-29T00:17:42.558Z,4.97
2023-03-29T00:20:44.159Z,3.20
2023-03-29T00:23:45.762Z,4.28
2023-03-29T00:26:47.285Z,2.90
2023-03-29T00:29:48.756Z,3.42
2023-03-29T00:32:51.446Z,2.38
2023-03-29T00:35:53.330Z,1.95
2023-03-29T00:38:56.392Z,4.38
2023-03-29T00:41:59.099Z,1.67
2023-03-29T00:45:04.098Z,3.35
2023-03-29T00:48:32.781Z,2.47
2023-03-29T00:51:38.216Z,2.97
2023-03-29T00:54:44.681Z,3.00
2023-03-29T00:57:46.899Z,1.95
2023-03-29T01:00:55.446Z,3.17
2023-03-29T01:04:09.901Z,4.45
2023-03-29T01:07:23.229Z,2.67
2023-03-29T01:10:38.874Z,4.57
2023-03-29T01:13:57.725Z,2.55
2023-03-29T01:16:59.397Z,3.30
2023-03-29T01:20:14.261Z,4.88
2023-03-29T01:23:22.177Z,4.97
2023-03-29T01:26:56.098Z,4.45
2023-03-29T01:30:02.040Z,5.45
2023-03-29T01:33:12.576Z,2.95
2023-03-29T01:36:34.941Z,2.42
2023-03-29T01:39:36.474Z,4.22
2023-03-29T01:42:56.605Z,2.80
2023-03-29T01:46:08.321Z,2.70
2023-03-29T01:49:17.183Z,2.40
2023-03-29T01:52:25.743Z,3.95
2023-03-29T01:55:33.402Z,3.05
2023-03-29T01:58:41.553Z,3.15
2023-03-29T02:01:53.915Z,6.25
2023-03-29T02:04:57.465Z,4.45
2023-03-29T02:08:01.659Z,3.55
2023-03-29T02:14:07.671Z,2.72
2023-03-29T02:17:28.354Z,2.72
2023-03-29T02:20:40.509Z,5.15
2023-03-29T02:23:45.938Z,7.07
2023-03-29T02:26:48.763Z,2.80
2023-03-29T02:29:50.511Z,3.67
2023-03-29T02:33:04.881Z,3.70
2023-03-29T02:39:17.701Z,3.20
2023-03-29T02:42:20.455Z,3.13
2023-03-29T02:45:24.042Z,2.63
2023-03-29T02:48:28.598Z,3.85
2023-03-29T02:51:34.106Z,3.00
2023-03-29T02:54:37.982Z,3.78
2023-03-29T02:57:40.921Z,3.10
2023-03-29T03:00:46.349Z,2.58
2023-03-29T03:03:48.066Z,3.33
2023-03-29T03:06:50.107Z,2.70
2023-03-29T03:09:51.942Z,2.80
2023-03-29T03:12:53.558Z,3.33
2023-03-29T03:15:56.197Z,2.58
2023-03-29T03:18:57.814Z,3.53
2023-03-29T03:21:59.718Z,2.97
2023-03-29T03:25:01.259Z,2.22
2023-03-29T03:28:02.794Z,1.73
2023-03-29T03:31:05.215Z,4.10
2023-03-29T03:34:32.349Z,3.08
2023-03-29T03:37:35.716Z,2.50
2023-03-29T03:40:37.247Z,4.43
2023-03-29T03:43:41.496Z,2.42
2023-03-29T03:49:45.229Z,4.60
2023-03-29T03:52:47.215Z,4.32
2023-03-29T03:55:55.909Z,1.98
2023-03-29T03:59:01.050Z,2.17
2023-03-29T04:02:06.687Z,5.72
2023-03-29T04:05:08.945Z,4.50
2023-03-29T04:08:14.008Z,1.88
2023-03-29T04:11:54.063Z,5.30
2023-03-29T04:14:56.043Z,3.72
2023-03-29T04:18:00.651Z,3.33
2023-03-29T04:21:08.191Z,2.80
2023-03-29T04:24:10.400Z,3.75
2023-03-29T04:27:15.013Z,5.38
2023-03-29T04:30:17.047Z,4.88
2023-03-29T04:33:46.664Z,2.58
2023-03-29T04:36:52.995Z,3.45
2023-03-29T04:40:00.333Z,3.42
2023-03-29T04:43:04.471Z,4.57
2023-03-29T04:46:07.847Z,3.00
2023-03-29T04:49:27.414Z,3.50
2023-03-29T04:52:33.011Z,3.60
2023-03-29T04:55:35.671Z,5.00
2023-03-29T04:58:37.371Z,2.67
2023-03-29T05:01:39.559Z,3.40
2023-03-29T05:04:41.273Z,3.63
2023-03-29T05:07:48.113Z,2.85
2023-03-29T05:10:52.320Z,4.00
2023-03-29T05:13:57.137Z,3.38
2023-03-29T05:17:01.382Z,3.08
2023-03-29T05:20:10.469Z,3.33
2023-03-29T05:23:12.924Z,5.85
2023-03-29T05:26:33.783Z,3.35
2023-03-29T05:29:35.506Z,3.55
2023-03-29T05:33:10.401Z,3.15
2023-03-29T05:36:15.600Z,3.17
2023-03-29T05:39:23.478Z,3.95
2023-03-29T05:42:25.185Z,3.85
2023-03-29T05:45:32.435Z,2.95
2023-03-29T05:48:34.311Z,2.60
2023-03-29T05:51:36.354Z,6.45
2023-03-29T05:54:37.827Z,3.45
2023-03-29T05:57:40.665Z,3.13
2023-03-29T06:00:43.788Z,2.22
2023-03-29T06:04:06.493Z,3.05
2023-03-29T06:07:16.447Z,2.67
2023-03-29T06:10:24.708Z,2.75
2023-03-29T06:13:37.730Z,3.55
2023-03-29T06:16:42.179Z,3.40
2023-03-29T06:19:44.927Z,2.38
2023-03-29T06:22:47.909Z,3.70
2023-03-29T06:25:51.385Z,3.22
2023-03-29T06:28:53.369Z,6.68
2023-03-29T06:31:57.163Z,4.63
2023-03-29T06:35:20.690Z,2.05
2023-03-29T06:38:29.156Z,2.95
2023-03-29T06:41:33.811Z,2.95
2023-03-29T06:44:41.267Z,3.05
2023-03-29T06:47:52.652Z,4.38
2023-03-29T06:50:54.614Z,5.60
2023-03-29T06:53:59.414Z,3.47
2023-03-29T06:57:03.859Z,2.95
2023-03-29T07:00:18.938Z,2.42
2023-03-29T07:03:39.146Z,2.92
2023-03-29T07:06:40.863Z,3.08
2023-03-29T07:09:42.369Z,3.70
2023-03-29T07:13:02.432Z,2.63
2023-03-29T07:16:04.218Z,2.38
2023-03-29T07:19:25.198Z,2.60
2023-03-29T07:22:29.580Z,4.25
2023-03-29T07:25:36.264Z,2.35
2023-03-29T07:28:39.294Z,4.47
2023-03-29T07:31:41.566Z,4.20
2023-03-29T07:35:04.212Z,4.70
2023-03-29T07:38:09.484Z,3.00
2023-03-29T07:41:14.455Z,3.33
2023-03-29T07:44:29.406Z,2.88
2023-03-29T07:47:31.456Z,2.35
2023-03-29T07:50:33.673Z,5.00
2023-03-29T07:53:38.498Z,2.05
2023-03-29T07:56:47.578Z,4.68
2023-03-29T08:00:16.992Z,3.50
2023-03-29T08:03:28.817Z,3.97
2023-03-29T08:06:30.815Z,4.35
2023-03-29T08:09:32.343Z,3.28
2023-03-29T08:12:34.095Z,2.83
2023-03-29T08:15:42.077Z,5.35
2023-03-29T08:18:53.712Z,3.20
2023-03-29T08:25:02.610Z,1.92
2023-03-29T08:28:08.617Z,3.88
2023-03-29T08:31:18.247Z,1.90
2023-03-29T08:34:20.410Z,3.83
2023-03-29T08:37:47.408Z,5.13
2023-03-29T08:40:50.708Z,5.25
2023-03-29T08:44:10.770Z,2.72
2023-03-29T08:47:41.636Z,2.70
2023-03-29T08:50:52.763Z,3.65
2023-03-29T08:54:34.094Z,4.93
2023-03-29T08:57:47.842Z,4.55
2023-03-29T09:00:59.394Z,2.47
2023-03-29T09:04:10.180Z,3.55
2023-03-29T09:07:26.892Z,2.88
2023-03-29T09:14:22.271Z,4.20
2023-03-29T09:17:43.334Z,4.32
2023-03-29T09:21:00.508Z,2.50
2023-03-29T09:24:56.374Z,2.75
2023-03-29T09:28:25.832Z,7.15
2023-03-29T09:31:37.184Z,2.95
2023-03-29T09:34:45.643Z,4.57
2023-03-29T09:37:54.679Z,3.65
2023-03-29T09:41:04.213Z,2.93
2023-03-29T09:44:20.569Z,5.55
2023-03-29T09:47:36.059Z,2.90
2023-03-29T09:50:48.776Z,4.22
2023-03-29T09:53:50.556Z,2.15
2023-03-29T09:57:05.737Z,2.88
2023-03-29T10:00:10.576Z,5.13
2023-03-29T10:03:20.494Z,4.90
2023-03-29T10:06:28.599Z,4.03
2023-03-29T10:09:35.694Z,2.75
2023-03-29T10:12:54.091Z,3.53
2023-03-29T10:16:01.397Z,3.17
2023-03-29T10:19:36.837Z,5.90
2023-03-29T10:22:40.445Z,2.35
2023-03-29T10:25:43.027Z,2.47
2023-03-29T10:28:44.861Z,2.67
2023-03-29T10:31:46.497Z,2.50
2023-03-29T10:34:49.826Z,5.03
2023-03-29T10:37:53.306Z,2.72
2023-03-29T10:41:03.598Z,5.22
2023-03-29T10:44:05.566Z,2.60
2023-03-29T10:47:16.006Z,3.65
2023-03-29T10:50:17.567Z,4.35
2023-03-29T10:53:31.653Z,3.58
2023-03-29T10:56:45.169Z,2.67
2023-03-29T10:59:55.654Z,5.60
2023-03-29T11:03:14.459Z,5.57
2023-03-29T11:06:54.219Z,6.53
2023-03-29T11:10:05.677Z,5.00
2023-03-29T11:13:38.922Z,2.90
2023-03-29T11:16:55.335Z,3.75
2023-03-29T11:20:15.873Z,1.83
2023-03-29T11:23:45.829Z,2.92
2023-03-29T11:27:05.958Z,3.60
2023-03-29T11:30:43.417Z,2.83
2023-03-29T11:33:57.084Z,3.60
2023-03-29T11:37:26.699Z,2.70
2023-03-29T11:40:44.971Z,3.60
2023-03-29T11:43:52.902Z,4.18
2023-03-29T11:47:08.259Z,4.10
2023-03-29T11:50:21.574Z,3.72
2023-03-29T11:53:31.529Z,1.80
2023-03-29T11:56:52.184Z,4.97
2023-03-29T12:00:07.508Z,3.72
2023-03-29T12:03:37.074Z,3.65
2023-03-29T12:06:47.684Z,4.75
2023-03-29T12:09:55.006Z,3.42
2023-03-29T12:13:03.141Z,4.75
2023-03-29T12:16:28.054Z,1.83
2023-03-29T12:19:43.207Z,4.00
2023-03-29T12:22:49.172Z,4.45
2023-03-29T12:26:00.415Z,4.50
2023-03-29T12:29:38.942Z,4.85
2023-03-29T12:32:57.631Z,3.38
2023-03-29T12:36:52.007Z,5.05
2023-03-29T12:40:16.521Z,3.03
2023-03-29T12:43:41.517Z,5.30
2023-03-29T12:47:01.458Z,3.67
2023-03-29T12:50:04.640Z,2.17
2023-03-29T12:53:13.346Z,5.68
2023-03-29T12:56:20.801Z,6.10
2023-03-29T12:59:27.181Z,4.55
2023-03-29T13:02:36.999Z,3.92
2023-03-29T13:05:39.184Z,3.40
2023-03-29T13:08:42.487Z,4.72
2023-03-29T13:11:45.617Z,2.55
2023-03-29T13:14:52.573Z,4.33
2023-03-29T13:18:09.136Z,2.45
2023-03-29T13:21:40.864Z,5.00
2023-03-29T13:24:48.549Z,4.22
2023-03-29T13:28:06.061Z,5.05
2023-03-29T13:31:27.373Z,4.07
2023-03-29T13:34:40.117Z,4.38
2023-03-29T13:38:00.380Z,5.93
2023-03-29T13:41:05.006Z,5.70
2023-03-29T13:44:27.152Z,5.35
2023-03-29T13:47:43.235Z,4.75
2023-03-29T13:51:01.098Z,5.68
2023-03-29T13:54:32.170Z,5.28
2023-03-29T13:57:41.303Z,8.02
2023-03-29T14:01:07.229Z,2.90
2023-03-29T14:04:20.888Z,10.40
2023-03-29T14:07:26.231Z,4.28
2023-03-29T14:10:40.929Z,5.63
2023-03-29T14:13:43.175Z,6.15
2023-03-29T14:16:44.768Z,6.63
2023-03-29T14:19:47.467Z,4.63
2023-03-29T14:22:49.517Z,4.10
2023-03-29T14:25:51.638Z,6.35
2023-03-29T14:28:56.676Z,4.13
2023-03-29T14:32:09.515Z,9.38
2023-03-29T14:35:11.094Z,4.80
2023-03-29T14:38:12.870Z,10.55
2023-03-29T14:41:14.642Z,7.38
2023-03-29T14:44:18.673Z,5.72
2023-03-29T14:47:29.556Z,6.10
2023-03-29T14:50:31.438Z,3.92
2023-03-29T14:53:34.554Z,5.47
2023-03-29T14:56:36.633Z,3.63
2023-03-29T14:59:41.320Z,7.53
2023-03-29T15:03:00.181Z,7.82
2023-03-29T15:06:04.622Z,4.95
2023-03-29T15:09:07.077Z,6.57
2023-03-29T15:12:16.187Z,6.68
2023-03-29T15:15:18.098Z,6.60
2023-03-29T15:18:27.043Z,5.82
2023-03-29T15:21:34.042Z,6.05
2023-03-29T15:24:43.218Z,8.70
2023-03-29T15:27:44.749Z,6.40
2023-03-29T15:30:54.257Z,4.13
2023-03-29T15:34:12.481Z,5.28
2023-03-29T15:37:14.012Z,7.97
2023-03-29T15:40:17.131Z,9.90
2023-03-29T15:43:21.217Z,6.55
2023-03-29T15:49:24.881Z,6.65
2023-03-29T15:52:26.358Z,7.75
2023-03-29T15:55:29.847Z,7.85
2023-03-29T15:58:33.488Z,8.48
2023-03-29T16:01:37.396Z,5.70
2023-03-29T16:04:39.263Z,5.50
2023-03-29T16:07:43.738Z,6.45
2023-03-29T16:10:51.015Z,4.38
2023-03-29T16:13:52.779Z,5.53
2023-03-29T16:16:55.833Z,8.38
2023-03-29T16:19:58.494Z,7.85
2023-03-29T16:23:09.404Z,7.00
2023-03-29T16:26:12.839Z,5.25
2023-03-29T16:29:15.969Z,8.57
2023-03-29T16:32:17.594Z,5.50
2023-03-29T16:35:26.128Z,7.15
2023-03-29T16:38:29.146Z,6.60
2023-03-29T16:41:31.520Z,7.70
2023-03-29T16:44:33.075Z,5.85
2023-03-29T16:47:34.571Z,4.95
2023-03-29T16:50:36.203Z,6.15
2023-03-29T16:53:38.069Z,8.02
2023-03-29T16:56:39.599Z,8.35
2023-03-29T16:59:44.962Z,8.95
2023-03-29T17:02:49.749Z,9.65
2023-03-29T17:05:53.586Z,10.73
2023-03-29T17:08:55.009Z,9.93
2023-03-29T17:11:56.445Z,13.35
2023-03-29T17:14:58.005Z,14.55
2023-03-29T17:17:59.517Z,10.88
2023-03-29T17:21:01.911Z,10.52
2023-03-29T17:24:03.814Z,10.65
2023-03-29T17:27:05.357Z,11.75
2023-03-29T17:30:07.346Z,8.13
2023-03-29T17:33:08.866Z,8.93
2023-03-29T17:36:11.112Z,8.05
2023-03-29T17:39:15.210Z,10.18
2023-03-29T17:45:19.768Z,13.73
2023-03-29T17:48:22.850Z,8.50
2023-03-29T17:51:24.723Z,11.77
2023-03-29T17:54:26.273Z,10.15
2023-03-29T17:57:28.097Z,14.82
2023-03-29T18:00:29.651Z,10.40
2023-03-29T18:03:31.890Z,6.03
2023-03-29T18:06:34.931Z,8.60
2023-03-29T18:09:36.904Z,8.30
2023-03-29T18:12:38.748Z,10.23
2023-03-29T18:15:55.706Z,8.93
2023-03-29T18:18:57.266Z,9.57
2023-03-29T18:21:58.850Z,9.63
2023-03-29T18:25:00.341Z,12.98
2023-03-29T18:28:01.779Z,9.18
2023-03-29T18:31:04.375Z,7.60
2023-03-29T18:34:05.898Z,10.90
2023-03-29T18:37:09.220Z,12.38
2023-03-29T18:40:11.127Z,6.88
2023-03-29T18:43:12.814Z,10.73
2023-03-29T18:46:14.633Z,11.07
2023-03-29T18:49:16.412Z,5.82
2023-03-29T18:52:17.952Z,10.27
2023-03-29T18:55:19.412Z,9.93
2023-03-29T18:58:23.968Z,9.52
2023-03-29T19:01:26.033Z,9.07
2023-03-29T19:04:28.733Z,11.07
2023-03-29T19:07:30.409Z,10.38
2023-03-29T19:10:39.282Z,10.07
2023-03-29T19:13:41.413Z,11.63
2023-03-29T19:16:43.056Z,10.82
2023-03-29T19:19:44.833Z,8.75
2023-03-29T19:22:46.625Z,10.52
2023-03-29T19:26:00.254Z,9.95
2023-03-29T19:29:01.835Z,8.63
2023-03-29T19:32:03.739Z,12.38
2023-03-29T19:35:05.796Z,8.23
2023-03-29T19:38:07.365Z,9.98
2023-03-29T19:41:08.950Z,7.60
2023-03-29T19:44:10.523Z,14.10
2023-03-29T19:47:12.060Z,11.57
2023-03-29T19:50:14.224Z,11.50
2023-03-29T19:53:15.909Z,12.77
2023-03-29T19:56:17.783Z,8.90
2023-03-29T19:59:20.123Z,9.95
2023-03-29T20:02:21.618Z,9.88
2023-03-29T20:05:24.131Z,10.02
2023-03-29T20:08:26.334Z,9.43
2023-03-29T20:11:28.839Z,12.80
2023-03-29T20:14:30.800Z,13.25
2023-03-29T20:17:35.401Z,12.38
2023-03-29T20:20:36.882Z,8.52
2023-03-29T20:23:38.376Z,11.57
2023-03-29T20:26:39.815Z,12.73
2023-03-29T20:29:41.287Z,10.73
2023-03-29T20:32:42.845Z,9.77
2023-03-29T20:35:45.752Z,9.60
2023-03-29T20:38:47.440Z,10.55
2023-03-29T20:41:51.532Z,9.82
2023-03-29T20:48:02.087Z,12.20
2023-03-29T20:51:10.032Z,9.63
2023-03-29T20:54:11.508Z,13.00
2023-03-29T20:57:15.943Z,13.50
2023-03-29T21:00:19.714Z,10.13
2023-03-29T21:03:21.351Z,12.18
2023-03-29T21:06:24.325Z,10.57
2023-03-29T21:09:25.837Z,7.38
2023-03-29T21:12:27.501Z,10.07
2023-03-29T21:15:30.581Z,9.55
2023-03-29T21:18:32.364Z,7.97
2023-03-29T21:21:34.996Z,12.00
2023-03-29T21:24:36.566Z,9.63
2023-03-29T21:27:38.555Z,11.30
2023-03-29T21:30:40.159Z,12.45
2023-03-29T21:33:41.612Z,8.65
2023-03-29T21:36:43.049Z,11.85
2023-03-29T21:39:44.500Z,8.20
2023-03-29T21:42:46.267Z,10.48
2023-03-29T21:45:49.679Z,15.68
2023-03-29T21:48:51.220Z,10.50
2023-03-29T21:51:52.886Z,15.13
2023-03-29T21:54:54.319Z,9.85
2023-03-29T21:57:55.824Z,10.48
2023-03-29T22:00:57.402Z,10.70
2023-03-29T22:03:59.021Z,12.57
2023-03-29T22:07:00.531Z,9.90
2023-03-29T22:10:04.208Z,13.77
2023-03-29T22:13:05.910Z,13.32
2023-03-29T22:16:08.765Z,10.85
2023-03-29T22:19:10.648Z,13.45
2023-03-29T22:22:14.369Z,16.88
2023-03-29T22:25:19.525Z,9.77
2023-03-29T22:28:21.088Z,14.75
2023-03-29T22:31:24.119Z,15.90
2023-03-29T22:34:25.618Z,10.63
2023-03-29T22:37:27.072Z,10.90
2023-03-29T22:40:28.648Z,19.13
2023-03-29T22:43:30.485Z,14.98
2023-03-29T22:46:32.014Z,16.92
2023-03-29T22:49:33.658Z,12.00
2023-03-29T22:52:35.270Z,12.50
2023-03-29T22:55:37.165Z,14.50
2023-03-29T22:58:38.680Z,14.30
2023-03-29T23:01:40.541Z,12.25
2023-03-29T23:04:42.285Z,13.18
2023-03-29T23:07:43.825Z,13.18
2023-03-29T23:10:47.013Z,12.15
2023-03-29T23:13:48.829Z,13.80
2023-03-29T23:16:50.447Z,15.32
2023-03-29T23:19:52.052Z,16.98
2023-03-29T23:22:53.457Z,17.52
2023-03-29T23:25:55.843Z,13.00
2023-03-29T23:28:57.544Z,12.25
2023-03-29T23:31:59.555Z,13.63
2023-03-29T23:35:01.279Z,14.65
2023-03-29T23:38:03.493Z,15.23
2023-03-29T23:41:08.332Z,16.67
2023-03-29T23:44:10.212Z,12.65
2023-03-29T23:47:11.723Z,12.73
2023-03-29T23:50:14.522Z,17.98
2023-03-29T23:53:16.086Z,11.55
2023-03-29T23:56:17.593Z,15.95
2023-03-29T23:59:19.185Z,17.10
